Time;durP1;ratioP1;P1;durP2;ratioP2;P2;SDS_P1;SDS_P2;PMS_P1;PMS_P2;Temp;Humidity;BMP_temperature;BMP_pressure;BME280_temperature;BME280_humidity;BME280_pressure;Samples;Min_cycle;Max_cycle;Signal;HPM_P1;HPM_P2
2023/07/04 00:02:22;;;;;;;7.90;6.07;;;17.20;57.80;;;;;;6240227;28;20254;-82
2023/07/04 00:05:25;;;;;;;8.33;5.83;;;17.20;57.60;;;;;;6231705;28;20291;-81
2023/07/04 00:08:33;;;;;;;9.33;4.93;;;17.20;57.80;;;;;;6232888;28;20265;-81
2023/07/04 00:11:37;;;;;;;7.27;4.87;;;17.20;57.60;;;;;;6237764;28;20250;-82
2023/07/04 00:14:40;;;;;;;6.37;5.00;;;17.30;57.30;;;;;;6240563;28;20230;-83
2023/07/04 00:17:43;;;;;;;7.43;5.60;;;17.40;57.30;;;;;;6231591;28;20325;-82
2023/07/04 00:20:47;;;;;;;12.27;5.23;;;17.40;57.40;;;;;;6210751;28;20232;-84
2023/07/04 00:23:53;;;;;;;6.03;4.90;;;17.30;57.50;;;;;;6206413;28;20334;-81
2023/07/04 00:26:57;;;;;;;8.47;5.20;;;17.30;57.70;;;;;;6196991;28;20317;-84
2023/07/04 00:30:04;;;;;;;6.60;5.63;;;17.20;57.80;;;;;;6208205;28;20594;-82
2023/07/04 00:33:07;;;;;;;8.30;5.60;;;17.30;57.70;;;;;;6217218;28;20239;-82
2023/07/04 00:36:12;;;;;;;7.53;5.33;;;17.20;57.60;;;;;;6221541;28;20259;-82
2023/07/04 00:39:18;;;;;;;8.97;5.33;;;17.30;57.50;;;;;;6205638;28;20244;-83
2023/07/04 00:42:21;;;;;;;10.90;5.83;;;17.40;57.40;;;;;;6202908;28;20262;-82
2023/07/04 00:45:27;;;;;;;7.30;5.47;;;17.40;57.50;;;;;;6207137;28;20282;-84
2023/07/04 00:48:30;;;;;;;9.50;5.33;;;17.40;57.80;;;;;;6216207;28;20244;-81
2023/07/04 00:51:34;;;;;;;7.43;5.43;;;17.40;57.40;;;;;;6233727;28;20242;-83
2023/07/04 00:54:41;;;;;;;6.40;5.27;;;17.40;57.40;;;;;;6211895;28;20243;-82
2023/07/04 00:57:46;;;;;;;8.93;5.33;;;17.40;57.40;;;;;;6213975;28;20241;-85
2023/07/04 01:00:49;;;;;;;7.83;5.20;;;17.40;57.40;;;;;;6211210;28;20240;-82
2023/07/04 01:03:58;;;;;;;7.33;5.10;;;17.40;57.30;;;;;;6208450;28;20691;-82
2023/07/04 01:07:17;;;;;;;6.93;5.03;;;17.40;57.40;;;;;;6199653;28;20232;-82
2023/07/04 01:10:32;;;;;;;7.03;5.27;;;17.40;57.30;;;;;;6215032;28;20893;-83
2023/07/04 01:13:43;;;;;;;8.83;5.33;;;17.50;57.50;;;;;;6215161;28;20243;-83
2023/07/04 01:16:47;;;;;;;8.63;5.47;;;17.50;57.30;;;;;;6214445;28;20240;-81
2023/07/04 01:19:51;;;;;;;8.10;5.70;;;17.50;57.40;;;;;;6208353;28;20310;-82
2023/07/04 01:23:02;;;;;;;6.97;4.87;;;17.40;57.50;;;;;;6191955;28;20236;-84
2023/07/04 01:26:23;;;;;;;6.33;5.57;;;17.40;57.70;;;;;;6219486;28;20234;-83
2023/07/04 01:29:27;;;;;;;9.20;5.30;;;17.40;57.70;;;;;;6236644;28;20716;-84
2023/07/04 01:32:30;;;;;;;9.03;5.30;;;17.40;57.50;;;;;;6240775;28;20273;-84
2023/07/04 01:35:34;;;;;;;8.00;5.57;;;17.40;57.70;;;;;;6236285;28;20241;-82
2023/07/04 01:38:37;;;;;;;10.57;5.40;;;17.50;57.70;;;;;;6240074;28;20234;-84
2023/07/04 01:41:44;;;;;;;5.97;5.37;;;17.50;57.60;;;;;;6240478;28;20242;-82
2023/07/04 01:44:48;;;;;;;9.67;5.30;;;17.50;57.60;;;;;;6233828;28;20690;-85
2023/07/04 01:47:53;;;;;;;8.67;5.20;;;17.50;57.90;;;;;;6244567;28;20778;-81
2023/07/04 01:50:56;;;;;;;8.30;4.80;;;17.40;57.60;;;;;;6231017;28;20302;-83
2023/07/04 01:54:00;;;;;;;5.97;5.40;;;17.50;57.40;;;;;;6252131;28;20285;-84
2023/07/04 01:57:10;;;;;;;8.63;5.00;;;17.50;57.50;;;;;;6208909;28;20227;-85
2023/07/04 02:00:14;;;;;;;10.07;5.60;;;17.50;57.00;;;;;;6238176;28;20234;-82
2023/07/04 02:03:18;;;;;;;8.13;5.10;;;17.60;56.80;;;;;;6239079;28;20239;-83
2023/07/04 02:06:21;;;;;;;6.03;4.70;;;17.60;56.80;;;;;;6235430;28;20270;-83
2023/07/04 02:09:24;;;;;;;6.67;5.30;;;17.60;56.80;;;;;;6243785;28;20235;-82
2023/07/04 02:12:29;;;;;;;8.10;5.63;;;17.60;56.80;;;;;;6240295;28;20266;-84
2023/07/04 02:15:32;;;;;;;8.47;5.47;;;17.70;56.80;;;;;;6224406;28;20354;-82
2023/07/04 02:18:36;;;;;;;7.73;4.83;;;17.60;57.00;;;;;;6218798;28;20770;-84
2023/07/04 02:21:39;;;;;;;6.07;4.93;;;17.70;56.90;;;;;;6214722;28;20719;-82
2023/07/04 02:24:42;;;;;;;6.07;5.50;;;17.60;57.00;;;;;;6210803;28;20374;-83
2023/07/04 02:27:47;;;;;;;8.17;5.37;;;17.60;56.90;;;;;;6218794;28;20304;-84
2023/07/04 02:30:54;;;;;;;8.10;5.37;;;17.60;57.20;;;;;;6216014;28;20240;-84
2023/07/04 02:33:57;;;;;;;8.43;5.07;;;17.60;57.20;;;;;;6202546;28;20267;-82
2023/07/04 02:37:00;;;;;;;7.77;5.27;;;17.50;57.30;;;;;;6218787;28;20239;-85
2023/07/04 02:40:04;;;;;;;9.70;5.73;;;17.50;57.60;;;;;;6211591;28;20862;-84
2023/07/04 02:43:09;;;;;;;7.77;5.27;;;17.50;57.40;;;;;;6214900;28;20246;-81
2023/07/04 02:46:13;;;;;;;8.27;5.83;;;17.50;57.50;;;;;;6225551;28;20329;-84
2023/07/04 02:49:16;;;;;;;6.87;5.53;;;17.50;57.40;;;;;;6237919;28;20238;-84
2023/07/04 02:52:21;;;;;;;6.77;5.20;;;17.50;57.40;;;;;;6232026;28;20290;-81
2023/07/04 02:55:24;;;;;;;6.07;5.47;;;17.50;57.60;;;;;;6242505;28;20243;-83
2023/07/04 02:58:29;;;;;;;6.73;6.07;;;17.60;57.70;;;;;;6231360;28;20246;-84
2023/07/04 03:01:32;;;;;;;5.47;4.97;;;17.50;57.90;;;;;;6238028;28;20800;-81
2023/07/04 03:04:36;;;;;;;7.07;5.47;;;17.50;57.90;;;;;;6229190;28;20239;-81
2023/07/04 03:07:39;;;;;;;11.63;6.00;;;17.50;57.90;;;;;;6228527;28;20276;-82
2023/07/04 03:10:46;;;;;;;6.30;5.17;;;17.40;57.90;;;;;;6218567;28;20231;-83
2023/07/04 03:13:51;;;;;;;6.27;5.77;;;17.40;58.20;;;;;;6220718;28;20236;-83
2023/07/04 03:16:55;;;;;;;10.00;5.70;;;17.40;58.30;;;;;;6217698;28;20236;-84
2023/07/04 03:20:04;;;;;;;7.47;5.83;;;17.40;58.20;;;;;;6222574;28;20231;-81
2023/07/04 03:23:08;;;;;;;8.57;6.37;;;17.40;58.10;;;;;;6247508;28;20246;-81
2023/07/04 03:26:11;;;;;;;9.87;5.90;;;17.30;58.40;;;;;;6242997;28;20242;-84
2023/07/04 03:29:15;;;;;;;7.10;6.10;;;17.20;58.50;;;;;;6240351;28;20253;-77
2023/07/04 03:32:18;;;;;;;11.17;5.90;;;17.20;58.50;;;;;;6203849;28;20289;-81
2023/07/04 03:35:21;;;;;;;7.33;5.90;;;17.20;58.50;;;;;;6218280;28;20246;-80
2023/07/04 03:38:25;;;;;;;8.53;6.00;;;17.20;58.40;;;;;;6209124;28;20328;-80
2023/07/04 03:41:28;;;;;;;10.10;6.20;;;17.20;58.50;;;;;;6209535;28;20245;-81
2023/07/04 03:44:32;;;;;;;6.27;5.70;;;17.20;58.60;;;;;;6224683;28;20227;-80
2023/07/04 03:47:35;;;;;;;8.97;6.30;;;17.00;58.90;;;;;;6209603;28;20229;-79
2023/07/04 03:50:39;;;;;;;11.00;6.10;;;17.10;58.70;;;;;;6231202;28;20223;-79
2023/07/04 03:53:42;;;;;;;7.03;6.20;;;17.00;59.10;;;;;;6230783;28;20397;-81
2023/07/04 03:56:45;;;;;;;6.10;5.50;;;17.00;59.00;;;;;;6231786;28;20278;-80
2023/07/04 03:59:50;;;;;;;6.43;5.93;;;17.00;59.00;;;;;;6230091;28;20230;-78
2023/07/04 04:02:53;;;;;;;7.73;5.63;;;17.00;58.90;;;;;;6233626;28;20234;-78
2023/07/04 04:05:56;;;;;;;10.43;6.47;;;17.00;58.80;;;;;;6237121;28;20742;-78
2023/07/04 04:08:59;;;;;;;8.43;5.70;;;17.00;59.00;;;;;;6227923;28;20726;-77
2023/07/04 04:12:04;;;;;;;6.50;5.90;;;17.00;58.60;;;;;;6215667;28;20376;-79
2023/07/04 04:15:10;;;;;;;6.77;5.63;;;17.00;58.70;;;;;;6222737;28;20235;-80
2023/07/04 04:18:13;;;;;;;8.67;5.90;;;17.00;58.90;;;;;;6237608;28;20271;-80
2023/07/04 04:21:16;;;;;;;8.83;6.20;;;17.00;59.00;;;;;;6206203;28;20243;-78
2023/07/04 04:24:20;;;;;;;7.53;5.77;;;17.00;58.80;;;;;;6216206;28;20274;-80
2023/07/04 04:27:23;;;;;;;9.97;5.50;;;17.10;58.40;;;;;;6208568;28;20389;-78
2023/07/04 04:30:28;;;;;;;12.00;5.60;;;17.10;58.60;;;;;;6209728;28;20378;-79
2023/07/04 04:33:32;;;;;;;8.77;5.83;;;17.10;58.50;;;;;;6200977;28;20249;-77
2023/07/04 04:36:35;;;;;;;9.13;5.90;;;17.20;58.30;;;;;;6210150;28;20322;-77
2023/07/04 04:39:38;;;;;;;7.87;6.53;;;17.20;58.70;;;;;;6204903;28;20266;-77
2023/07/04 04:42:43;;;;;;;7.83;5.93;;;17.20;58.70;;;;;;6202165;28;20795;-75
2023/07/04 04:45:48;;;;;;;9.67;6.13;;;17.20;58.70;;;;;;6205762;28;20253;-78
2023/07/04 04:48:51;;;;;;;9.87;6.40;;;17.30;58.50;;;;;;6210362;28;20235;-77
2023/07/04 04:51:54;;;;;;;9.80;6.30;;;17.30;58.40;;;;;;6208340;28;20243;-78
2023/07/04 04:54:58;;;;;;;8.10;5.87;;;17.40;58.60;;;;;;6209057;28;20241;-75
2023/07/04 04:58:01;;;;;;;7.63;6.20;;;17.50;58.40;;;;;;6209133;28;20721;-79
2023/07/04 05:01:16;;;;;;;7.37;6.03;;;17.50;58.20;;;;;;6206724;28;20278;-78
2023/07/04 05:04:21;;;;;;;8.37;5.53;;;17.60;58.00;;;;;;6211101;28;20231;-77
2023/07/04 05:07:24;;;;;;;9.43;5.93;;;17.80;57.90;;;;;;6210733;28;20224;-75
2023/07/04 05:10:27;;;;;;;12.27;6.03;;;17.80;57.40;;;;;;6211754;28;20238;-78
2023/07/04 05:13:30;;;;;;;10.57;5.87;;;17.90;57.50;;;;;;6204886;28;20231;-77
2023/07/04 05:16:34;;;;;;;7.47;6.03;;;17.90;57.40;;;;;;6212706;28;20254;-78
2023/07/04 05:19:38;;;;;;;10.57;6.00;;;18.00;57.50;;;;;;6213681;28;20227;-76
2023/07/04 05:22:42;;;;;;;7.70;5.43;;;18.00;57.50;;;;;;6200209;28;20246;-77
2023/07/04 05:25:45;;;;;;;8.43;6.03;;;17.80;57.50;;;;;;6223015;28;20231;-76
2023/07/04 05:28:48;;;;;;;10.47;5.87;;;17.80;57.80;;;;;;6240100;28;20242;-77
2023/07/04 05:31:53;;;;;;;9.07;6.33;;;17.90;57.90;;;;;;6237201;28;20950;-76
2023/07/04 05:34:56;;;;;;;7.83;5.70;;;18.10;57.20;;;;;;6238209;28;20231;-77
2023/07/04 05:37:59;;;;;;;8.00;6.07;;;18.40;57.10;;;;;;6232389;28;20231;-80
2023/07/04 05:41:03;;;;;;;11.50;5.80;;;18.60;56.70;;;;;;6236957;28;20234;-76
2023/07/04 05:44:08;;;;;;;12.33;6.27;;;18.70;56.50;;;;;;6232687;28;20372;-76
2023/07/04 05:47:13;;;;;;;7.90;6.30;;;18.70;56.20;;;;;;6234890;28;20238;-76
2023/07/04 05:50:16;;;;;;;7.47;6.10;;;18.70;56.70;;;;;;6228838;28;20334;-75
2023/07/04 05:53:24;;;;;;;7.57;5.83;;;18.40;56.70;;;;;;6231290;28;20249;-75
2023/07/04 05:56:28;;;;;;;8.40;6.17;;;18.60;56.70;;;;;;6229597;28;20246;-76
2023/07/04 05:59:31;;;;;;;6.63;5.33;;;19.00;56.10;;;;;;6234026;28;20317;-73
2023/07/04 06:02:36;;;;;;;6.90;5.60;;;19.30;55.80;;;;;;6237958;28;20242;-76
2023/07/04 06:05:40;;;;;;;11.40;6.23;;;19.50;55.60;;;;;;6236819;28;20253;-76
2023/07/04 06:08:43;;;;;;;10.13;6.30;;;19.50;55.50;;;;;;6229056;28;20354;-75
2023/07/04 06:11:49;;;;;;;8.10;5.33;;;19.40;56.00;;;;;;6243586;28;20320;-74
2023/07/04 06:14:52;;;;;;;9.20;6.20;;;19.50;55.80;;;;;;6233043;28;20228;-76
2023/07/04 06:17:56;;;;;;;9.03;6.47;;;19.50;55.50;;;;;;6228047;28;20312;-76
2023/07/04 06:21:07;;;;;;;10.57;6.00;;;19.60;55.50;;;;;;6238746;28;20746;-76
2023/07/04 06:24:11;;;;;;;9.03;6.03;;;20.00;55.00;;;;;;6223715;28;20856;-75
2023/07/04 06:27:14;;;;;;;8.27;5.53;;;20.00;55.30;;;;;;6210772;28;20374;-74
2023/07/04 06:30:17;;;;;;;9.40;5.50;;;20.10;54.60;;;;;;6215996;28;20243;-75
2023/07/04 06:33:21;;;;;;;6.53;5.07;;;20.10;54.70;;;;;;6201544;28;20314;-75
2023/07/04 06:36:25;;;;;;;9.20;5.53;;;20.50;55.00;;;;;;6212163;28;20243;-74
2023/07/04 06:39:28;;;;;;;7.37;5.40;;;20.60;54.40;;;;;;6203105;28;20262;-75
2023/07/04 06:42:33;;;;;;;8.20;5.30;;;20.80;54.90;;;;;;6215053;28;20444;-74
2023/07/04 06:45:36;;;;;;;5.67;4.80;;;20.80;54.30;;;;;;6197443;28;20243;-75
2023/07/04 06:48:41;;;;;;;6.00;4.33;;;19.90;54.70;;;;;;6215018;28;20734;-75
2023/07/04 06:51:44;;;;;;;9.03;5.00;;;19.80;54.90;;;;;;6206362;28;20231;-76
2023/07/04 06:54:49;;;;;;;6.93;4.27;;;19.60;56.10;;;;;;6229726;28;20235;-77
2023/07/04 06:57:54;;;;;;;5.83;4.40;;;19.70;55.20;;;;;;6242342;28;20885;-77
2023/07/04 07:00:57;;;;;;;5.43;3.77;;;19.70;55.00;;;;;;6235178;28;20645;-77
2023/07/04 07:04:03;;;;;;;6.50;3.63;;;19.00;56.20;;;;;;6230061;28;20775;-79
2023/07/04 07:07:09;;;;;;;4.00;3.60;;;19.10;56.00;;;;;;6236230;28;20238;-76
2023/07/04 07:10:12;;;;;;;4.90;3.90;;;19.30;55.80;;;;;;6223548;28;20292;-78
2023/07/04 07:13:15;;;;;;;5.50;3.77;;;19.60;55.70;;;;;;6221763;28;20274;-78
2023/07/04 07:16:20;;;;;;;8.07;4.20;;;19.50;55.80;;;;;;6215614;28;20238;-75
2023/07/04 07:19:26;;;;;;;3.50;3.23;;;19.70;55.50;;;;;;6221247;28;20289;-77
2023/07/04 07:22:29;;;;;;;6.53;4.40;;;19.70;54.40;;;;;;6219484;28;20722;-77
2023/07/04 07:25:33;;;;;;;7.13;4.97;;;19.70;55.10;;;;;;6227816;28;20313;-75
2023/07/04 07:28:38;;;;;;;6.50;5.00;;;19.70;55.20;;;;;;6227610;28;20242;-77
2023/07/04 07:31:42;;;;;;;6.47;4.73;;;19.60;55.60;;;;;;6236131;28;20288;-76
2023/07/04 07:34:47;;;;;;;9.10;4.97;;;19.50;55.50;;;;;;6237486;28;20231;-76
2023/07/04 07:37:50;;;;;;;7.47;4.93;;;19.60;55.80;;;;;;6228685;28;20640;-77
2023/07/04 07:40:54;;;;;;;5.40;4.90;;;20.00;55.50;;;;;;6243860;28;20615;-79
2023/07/04 07:43:57;;;;;;;7.50;4.77;;;20.00;54.70;;;;;;6237872;28;20243;-77
2023/07/04 07:47:01;;;;;;;6.20;4.40;;;19.70;54.70;;;;;;6238576;28;20234;-78
2023/07/04 07:50:06;;;;;;;7.23;4.97;;;19.50;54.60;;;;;;6234302;28;20866;-77
2023/07/04 07:53:09;;;;;;;4.93;4.53;;;19.20;55.30;;;;;;6239630;28;20258;-77
2023/07/04 07:56:15;;;;;;;5.90;4.40;;;19.10;55.30;;;;;;6240030;28;20230;-76
2023/07/04 07:59:18;;;;;;;4.83;4.20;;;19.30;55.00;;;;;;6223812;28;20462;-77
2023/07/04 08:02:21;;;;;;;5.03;4.10;;;19.30;55.00;;;;;;6238700;28;20345;-75
2023/07/04 08:05:26;;;;;;;4.27;3.97;;;19.40;54.70;;;;;;6240665;28;20239;-76
2023/07/04 08:08:29;;;;;;;6.77;4.00;;;19.50;54.20;;;;;;6238650;28;20672;-78
2023/07/04 08:11:33;;;;;;;8.63;3.80;;;19.50;54.40;;;;;;6234928;28;20250;-77
2023/07/04 08:14:36;;;;;;;4.17;3.87;;;19.60;54.40;;;;;;6231720;28;20241;-77
2023/07/04 08:17:39;;;;;;;4.00;3.60;;;19.70;55.30;;;;;;6229586;28;20238;-78
2023/07/04 08:20:44;;;;;;;4.63;4.20;;;20.00;54.50;;;;;;6237244;28;20301;-75
2023/07/04 08:23:49;;;;;;;4.73;3.53;;;19.80;54.40;;;;;;6235058;28;20231;-76
2023/07/04 08:26:56;;;;;;;6.67;4.10;;;20.00;53.00;;;;;;6210790;28;20284;-78
2023/07/04 08:29:59;;;;;;;5.87;3.70;;;20.00;53.70;;;;;;6203664;28;20265;-77
2023/07/04 08:33:02;;;;;;;5.73;3.97;;;20.00;53.40;;;;;;6212920;28;20770;-77
2023/07/04 08:36:09;;;;;;;5.70;3.77;;;20.10;53.30;;;;;;6203324;28;20927;-77
2023/07/04 08:39:12;;;;;;;4.10;3.70;;;20.30;53.20;;;;;;6214598;28;20231;-76
2023/07/04 08:42:18;;;;;;;8.60;3.73;;;20.30;53.00;;;;;;6212782;28;20611;-76
2023/07/04 08:45:26;;;;;;;4.47;3.53;;;20.60;53.20;;;;;;6210349;28;20243;-76
2023/07/04 08:48:31;;;;;;;4.07;3.67;;;20.50;52.90;;;;;;6207740;28;20923;-79
2023/07/04 08:51:41;;;;;;;4.43;3.47;;;20.70;52.30;;;;;;6206505;28;20412;-77
2023/07/04 08:54:45;;;;;;;7.33;3.30;;;20.70;51.80;;;;;;6203205;28;20235;-76
2023/07/04 08:57:53;;;;;;;7.47;3.43;;;21.00;51.50;;;;;;6210517;28;20231;-78
2023/07/04 09:00:59;;;;;;;3.37;3.17;;;21.00;50.50;;;;;;6209986;28;20696;-77
2023/07/04 09:04:08;;;;;;;3.77;2.93;;;21.10;51.10;;;;;;6203295;28;20235;-78
2023/07/04 09:07:22;;;;;;;3.60;3.40;;;20.80;50.50;;;;;;6210152;28;20255;-78
2023/07/04 09:10:34;;;;;;;5.03;3.33;;;20.80;50.00;;;;;;6200982;28;20632;-77
2023/07/04 09:13:40;;;;;;;4.70;3.70;;;20.50;51.10;;;;;;6205134;28;20602;-79
2023/07/04 09:16:48;;;;;;;5.63;3.90;;;20.50;51.50;;;;;;6224351;28;20226;-77
2023/07/04 09:19:53;;;;;;;3.47;3.30;;;20.60;51.10;;;;;;6228436;28;20246;-77
2023/07/04 09:22:58;;;;;;;5.97;4.00;;;20.50;51.30;;;;;;6237291;28;20243;-78
2023/07/04 09:26:01;;;;;;;3.70;3.10;;;20.50;50.90;;;;;;6236445;28;20238;-77
2023/07/04 09:29:06;;;;;;;4.63;3.30;;;20.60;50.70;;;;;;6216902;28;20733;-79
2023/07/04 09:32:10;;;;;;;4.17;3.37;;;20.50;50.50;;;;;;6218195;28;20325;-76
2023/07/04 09:35:16;;;;;;;4.00;3.40;;;20.70;51.20;;;;;;6206135;28;20232;-76
2023/07/04 09:38:21;;;;;;;4.80;3.60;;;20.90;49.70;;;;;;6212171;28;20309;-78
2023/07/04 09:41:26;;;;;;;3.80;3.50;;;20.80;49.80;;;;;;6212122;28;20282;-78
2023/07/04 09:44:33;;;;;;;3.37;3.10;;;20.90;49.70;;;;;;6209360;28;20276;-77
2023/07/04 09:47:37;;;;;;;8.37;3.43;;;21.00;51.20;;;;;;6214775;28;20246;-77
2023/07/04 09:50:40;;;;;;;7.43;3.03;;;21.10;50.10;;;;;;6213945;28;20243;-79
2023/07/04 09:53:45;;;;;;;3.27;3.07;;;21.40;49.50;;;;;;6214552;28;20250;-78
2023/07/04 09:56:51;;;;;;;4.57;3.33;;;21.40;49.10;;;;;;6230169;28;20259;-77
2023/07/04 09:59:59;;;;;;;4.87;4.20;;;21.20;48.90;;;;;;6232442;28;20231;-79
2023/07/04 10:03:07;;;;;;;2.80;2.60;;;21.50;48.80;;;;;;6224566;28;20644;-76
2023/07/04 10:06:12;;;;;;;9.60;2.80;;;21.40;48.80;;;;;;6209297;28;20251;-78
2023/07/04 10:09:20;;;;;;;6.17;3.03;;;21.40;49.10;;;;;;6209680;28;20249;-75
2023/07/04 10:12:25;;;;;;;8.83;3.07;;;21.50;48.40;;;;;;6201289;28;20251;-78
2023/07/04 10:15:38;;;;;;;8.03;2.67;;;21.50;48.40;;;;;;6208645;28;20396;-78
2023/07/04 10:18:41;;;;;;;3.07;2.80;;;21.30;48.70;;;;;;6206422;28;20559;-77
2023/07/04 10:21:48;;;;;;;12.30;3.40;;;21.50;48.90;;;;;;6213457;28;20628;-76
2023/07/04 10:24:52;;;;;;;4.37;3.07;;;21.40;48.40;;;;;;6213714;28;20230;-76
2023/07/04 10:27:59;;;;;;;3.70;2.53;;;21.70;48.60;;;;;;6206862;28;20357;-76
2023/07/04 10:31:06;;;;;;;6.93;2.83;;;21.70;47.60;;;;;;6210353;28;20320;-78
2023/07/04 10:34:13;;;;;;;5.47;3.00;;;21.90;47.70;;;;;;6196808;28;21137;-77
2023/07/04 10:37:21;;;;;;;6.70;3.30;;;21.90;46.90;;;;;;6208979;28;20238;-78
2023/07/04 10:40:27;;;;;;;3.77;2.90;;;21.50;48.40;;;;;;6201507;28;20660;-76
2023/07/04 10:43:33;;;;;;;3.17;3.00;;;21.30;48.90;;;;;;6206394;28;20297;-78
2023/07/04 10:46:43;;;;;;;3.30;3.00;;;21.30;48.40;;;;;;6213297;28;20291;-76
2023/07/04 10:49:53;;;;;;;3.93;3.30;;;21.40;48.70;;;;;;6209927;28;20234;-77
2023/07/04 10:52:56;;;;;;;4.13;3.00;;;21.30;48.80;;;;;;6206011;28;20270;-77
2023/07/04 10:56:06;;;;;;;3.67;3.00;;;21.30;48.60;;;;;;6222675;28;20241;-76
2023/07/04 10:59:14;;;;;;;3.53;3.23;;;21.20;49.00;;;;;;6232214;28;20257;-78
2023/07/04 11:02:36;;;;;;;6.00;3.07;;;21.00;49.10;;;;;;6239889;28;20246;-78
2023/07/04 11:05:44;;;;;;;8.60;3.83;;;20.80;49.80;;;;;;6244386;28;20238;-76
2023/07/04 11:08:50;;;;;;;5.33;3.10;;;20.60;49.70;;;;;;6214445;28;20227;-75
2023/07/04 11:12:02;;;;;;;3.67;3.30;;;20.60;50.00;;;;;;6216900;28;20231;-79
2023/07/04 11:15:18;;;;;;;16.03;3.80;;;20.50;50.30;;;;;;6224101;28;20227;-76
2023/07/04 11:18:27;;;;;;;7.00;3.37;;;20.50;51.00;;;;;;6219219;28;20654;-78
2023/07/04 11:21:31;;;;;;;4.53;3.60;;;21.00;51.10;;;;;;6218288;28;20243;-79
2023/07/04 11:24:37;;;;;;;4.60;3.60;;;21.40;50.00;;;;;;6215036;28;20322;-77
2023/07/04 11:27:41;;;;;;;4.27;3.70;;;21.60;49.80;;;;;;6237144;28;20246;-77
2023/07/04 11:30:47;;;;;;;4.77;3.63;;;21.40;50.00;;;;;;6240497;28;20239;-77
2023/07/04 11:34:10;;;;;;;7.37;4.40;;;21.20;50.60;;;;;;6235609;28;20231;-77
2023/07/04 11:37:25;;;;;;;4.43;3.50;;;20.90;50.20;;;;;;6211257;28;20243;-77
2023/07/04 11:40:31;;;;;;;5.87;3.77;;;20.70;50.70;;;;;;6229142;28;20239;-77
2023/07/04 11:43:43;;;;;;;4.47;3.63;;;20.60;50.90;;;;;;6244587;28;20593;-76
2023/07/04 11:46:59;;;;;;;4.37;3.97;;;20.40;51.40;;;;;;6246031;28;20261;-77
2023/07/04 11:50:07;;;;;;;7.27;3.70;;;20.40;51.50;;;;;;6244298;28;20227;-78
2023/07/04 11:53:14;;;;;;;4.10;3.80;;;20.30;52.00;;;;;;6212633;28;20247;-79
2023/07/04 11:56:22;;;;;;;6.40;4.20;;;20.80;51.50;;;;;;6212404;28;20338;-78
2023/07/04 11:59:38;;;;;;;6.10;4.07;;;21.20;50.50;;;;;;6203664;28;20667;-75
2023/07/04 12:02:42;;;;;;;5.90;3.90;;;21.20;49.90;;;;;;6207246;28;20868;-79
2023/07/04 12:05:47;;;;;;;4.77;3.50;;;21.40;49.60;;;;;;6203200;28;20667;-77
2023/07/04 12:08:52;;;;;;;3.90;3.60;;;21.30;50.40;;;;;;6230448;28;20288;-77
2023/07/04 12:11:57;;;;;;;8.80;4.03;;;21.50;50.90;;;;;;6235988;28;20246;-78
2023/07/04 12:15:08;;;;;;;9.17;4.10;;;21.90;49.90;;;;;;6231426;28;20242;-78
2023/07/04 12:18:16;;;;;;;6.23;4.20;;;22.10;49.20;;;;;;6237980;28;20246;-77
2023/07/04 12:21:21;;;;;;;4.83;4.53;;;22.20;49.10;;;;;;6230930;28;20254;-79
2023/07/04 12:24:25;;;;;;;7.10;4.50;;;22.10;49.10;;;;;;6233956;28;20728;-79
2023/07/04 12:27:29;;;;;;;5.97;4.00;;;21.70;48.90;;;;;;6225061;28;20240;-78
2023/07/04 12:30:34;;;;;;;6.10;3.67;;;21.90;49.90;;;;;;6231408;28;20860;-76
2023/07/04 12:33:40;;;;;;;6.60;4.50;;;21.90;49.00;;;;;;6231555;28;20231;-77
2023/07/04 12:36:45;;;;;;;7.80;4.00;;;21.70;50.30;;;;;;6243083;28;20331;-78
2023/07/04 12:39:50;;;;;;;4.67;4.17;;;21.90;49.60;;;;;;6219939;28;20300;-78
2023/07/04 12:42:53;;;;;;;5.47;4.20;;;22.00;49.30;;;;;;6237082;28;20710;-78
2023/07/04 12:46:09;;;;;;;6.80;4.40;;;22.10;50.30;;;;;;6231628;28;20231;-77
2023/07/04 12:49:17;;;;;;;6.50;4.30;;;22.20;49.80;;;;;;6229952;28;20628;-78
2023/07/04 12:52:31;;;;;;;12.17;4.80;;;21.90;49.20;;;;;;6233069;28;20805;-76
2023/07/04 12:55:36;;;;;;;5.33;4.37;;;21.90;49.20;;;;;;6236157;28;20234;-77
2023/07/04 12:58:41;;;;;;;6.73;4.50;;;21.90;49.30;;;;;;6236537;28;20242;-78
2023/07/04 13:01:45;;;;;;;4.33;4.00;;;21.70;49.10;;;;;;6232575;28;20611;-76
2023/07/04 13:04:49;;;;;;;8.33;4.60;;;21.60;49.20;;;;;;6237230;28;20289;-76
2023/07/04 13:07:52;;;;;;;4.60;4.20;;;21.60;49.00;;;;;;6243812;28;20240;-77
2023/07/04 13:10:58;;;;;;;8.57;5.00;;;21.70;49.70;;;;;;6237151;28;20235;-77
2023/07/04 13:14:06;;;;;;;4.97;3.90;;;22.10;50.10;;;;;;6224546;28;20251;-76
2023/07/04 13:17:13;;;;;;;4.87;4.17;;;22.10;48.40;;;;;;6234710;28;20636;-77
2023/07/04 13:20:19;;;;;;;7.77;4.07;;;22.20;48.40;;;;;;6227513;28;20797;-78
2023/07/04 13:23:25;;;;;;;4.53;3.97;;;22.50;47.60;;;;;;6235069;28;20786;-76
2023/07/04 13:26:33;;;;;;;7.23;4.03;;;22.50;47.80;;;;;;6237461;28;20380;-76
2023/07/04 13:29:37;;;;;;;7.13;3.97;;;22.50;47.30;;;;;;6234861;28;20231;-78
2023/07/04 13:32:44;;;;;;;7.13;4.07;;;22.50;47.50;;;;;;6236579;28;20239;-77
2023/07/04 13:35:50;;;;;;;8.40;3.80;;;22.60;47.00;;;;;;6238594;28;20707;-77
2023/07/04 13:38:53;;;;;;;5.73;4.10;;;22.30;46.90;;;;;;6234539;28;20274;-78
2023/07/04 13:42:01;;;;;;;3.67;3.33;;;22.30;48.00;;;;;;6225822;28;20239;-76
2023/07/04 13:45:04;;;;;;;5.03;3.90;;;22.40;48.00;;;;;;6220655;28;20230;-77
2023/07/04 13:48:12;;;;;;;4.60;3.53;;;22.50;46.70;;;;;;6236194;28;20227;-77
2023/07/04 13:51:21;;;;;;;3.70;3.50;;;22.50;46.60;;;;;;6221688;28;20917;-76
2023/07/04 13:54:24;;;;;;;5.20;4.03;;;22.50;47.20;;;;;;6211689;28;20294;-77
2023/07/04 13:57:27;;;;;;;8.23;3.90;;;22.40;47.00;;;;;;6205314;28;20239;-78
2023/07/04 14:00:30;;;;;;;8.93;3.97;;;22.40;47.20;;;;;;6209731;28;20266;-76
2023/07/04 14:03:55;;;;;;;3.70;3.27;;;22.50;46.70;;;;;;6216664;28;20245;-77
2023/07/04 14:07:01;;;;;;;6.50;3.47;;;22.60;46.90;;;;;;6214644;28;20805;-76
2023/07/04 14:10:05;;;;;;;6.53;3.83;;;22.70;46.80;;;;;;6217449;28;20223;-77
2023/07/04 14:13:12;;;;;;;4.80;3.87;;;22.70;47.00;;;;;;6216516;28;20231;-77
2023/07/04 14:16:19;;;;;;;3.67;3.40;;;23.10;46.80;;;;;;6213175;28;20745;-78
2023/07/04 14:19:44;;;;;;;4.63;3.97;;;23.20;47.30;;;;;;6206010;28;20275;-77
2023/07/04 14:22:50;;;;;;;4.27;3.80;;;23.20;45.90;;;;;;6204398;28;20251;-77
2023/07/04 14:25:53;;;;;;;3.93;3.63;;;22.70;46.30;;;;;;6210874;28;20245;-79
2023/07/04 14:28:56;;;;;;;4.87;4.00;;;22.70;47.00;;;;;;6204213;28;20244;-78
2023/07/04 14:31:59;;;;;;;3.87;3.67;;;22.70;46.90;;;;;;6205170;28;20852;-75
2023/07/04 14:35:05;;;;;;;5.87;4.20;;;22.80;47.40;;;;;;6210483;28;20231;-75
2023/07/04 14:38:09;;;;;;;5.33;4.27;;;23.10;46.60;;;;;;6205101;28;20227;-77
2023/07/04 14:41:13;;;;;;;4.50;3.80;;;23.10;46.40;;;;;;6203390;28;20660;-77
2023/07/04 14:44:19;;;;;;;7.47;3.90;;;23.10;47.00;;;;;;6211841;28;20231;-76
2023/07/04 14:47:22;;;;;;;6.57;4.37;;;23.10;47.30;;;;;;6225783;28;20239;-74
2023/07/04 14:50:27;;;;;;;3.97;3.63;;;23.00;46.80;;;;;;6224100;28;20245;-75
2023/07/04 14:53:30;;;;;;;5.90;3.90;;;23.00;47.20;;;;;;6224226;28;20242;-74
2023/07/04 14:56:34;;;;;;;3.87;3.27;;;22.60;47.60;;;;;;6217145;28;20236;-75
2023/07/04 14:59:52;;;;;;;5.47;3.90;;;22.50;47.70;;;;;;6206569;28;20615;-76
2023/07/04 15:02:55;;;;;;;4.37;3.97;;;22.50;47.30;;;;;;6219701;28;21055;-75
2023/07/04 15:06:01;;;;;;;5.97;4.10;;;22.30;47.80;;;;;;6214517;28;20305;-77
2023/07/04 15:09:05;;;;;;;4.17;3.87;;;22.30;47.50;;;;;;6212243;28;20685;-76
2023/07/04 15:12:10;;;;;;;6.70;4.00;;;22.00;47.80;;;;;;6210987;28;20773;-76
2023/07/04 15:15:13;;;;;;;4.37;3.90;;;22.00;48.00;;;;;;6210793;28;20603;-76
2023/07/04 15:18:16;;;;;;;7.70;4.17;;;22.10;47.90;;;;;;6212013;28;20227;-75
2023/07/04 15:21:21;;;;;;;4.20;4.00;;;22.40;47.90;;;;;;6208680;28;20244;-77
2023/07/04 15:24:25;;;;;;;4.27;3.80;;;22.70;46.80;;;;;;6212688;28;20235;-80
2023/07/04 15:27:28;;;;;;;5.63;4.20;;;22.90;47.20;;;;;;6217297;28;20723;-79
2023/07/04 15:30:32;;;;;;;4.10;3.77;;;22.90;46.60;;;;;;6217579;28;20239;-77
2023/07/04 15:33:35;;;;;;;4.30;3.83;;;22.80;47.10;;;;;;6205318;28;20252;-78
2023/07/04 15:36:40;;;;;;;4.37;4.10;;;22.60;47.30;;;;;;6216130;28;20235;-77
2023/07/04 15:39:43;;;;;;;5.07;4.37;;;22.60;47.10;;;;;;6213067;28;20247;-77
2023/07/04 15:42:51;;;;;;;4.73;3.77;;;22.50;48.10;;;;;;6207632;28;20247;-77
2023/07/04 15:45:57;;;;;;;7.50;4.77;;;22.50;48.00;;;;;;6217080;28;20318;-76
2023/07/04 15:49:00;;;;;;;4.57;3.83;;;22.40;48.10;;;;;;6213360;28;20369;-76
2023/07/04 15:52:05;;;;;;;7.03;4.40;;;22.30;48.20;;;;;;6223246;28;20245;-76
2023/07/04 15:55:10;;;;;;;5.33;4.40;;;22.30;48.00;;;;;;6236076;28;20223;-78
2023/07/04 15:58:13;;;;;;;8.50;4.87;;;22.30;48.20;;;;;;6221160;28;20347;-75
2023/07/04 16:01:16;;;;;;;3.87;3.57;;;22.20;48.20;;;;;;6209205;28;20664;-78
2023/07/04 16:04:19;;;;;;;5.90;4.40;;;22.10;48.70;;;;;;6214693;28;20735;-76